»·PEaware :: PDT1070 KSAN-KPHX

PDT1070 :: KSAN-KPHX

FLIGHT INFORMATION

Flight Status: Arrived
Operator:
USAir Express
More flights by this operator :: More flights under this callsign
Pilot: Larry S. (744)
Aircraft: BOEING 737-200
(B732)
More flights by this aircraft type
Origin: KSAN San Diego Intl-Lindbergh
United States
Destination: KPHX Phoenix Sky Harbor Intl
United States
More flights between these airports :: More routes between these airports
Route: BRDR7 IPL J18 MOHAK ARLIN4
File this flight plan on PilotEdge
Remarks: CS PIEDMONT / HISTORIC 3LD / MEMBER PIEDMONT-VIRTUAL.COM
Altitude:
(Current/Filed)
27,000ft
Speed:
(Current/Filed)
450kts
Departed: 14-Jan-22 10:57 AM
Arrived: 14-Jan-22 11:49 AM
Distance/Time
Traveled:
264nm/0:52
Distance/Time
To Go:
Arrived

Flight Plot

Page will automatically refresh every two minutes.

Flight plan parsing failed; only flown route is shown


Map Options




Map Legend


Flown Route
Filed Route
Departure Airport
Arrival Airport
Navaid (VOR, NDB)
Fix

Horizontal Profiles

Position Reports

Time Latitude Longitude Heading Altitude Ground
Speed
14-Jan-22 10:29 32.732565 -117.195526 317 26ft 0kts
14-Jan-22 10:30 32.732565 -117.195526 317 26ft 0kts
14-Jan-22 10:31 32.732565 -117.195526 317 26ft 0kts
14-Jan-22 10:32 32.732565 -117.195526 317 26ft 0kts
14-Jan-22 10:33 32.732565 -117.195526 317 26ft 0kts
14-Jan-22 10:34 32.732565 -117.195526 317 26ft 0kts
14-Jan-22 10:35 32.732565 -117.195526 317 26ft 0kts
14-Jan-22 10:36 32.732565 -117.195526 317 26ft 0kts
14-Jan-22 10:37 32.732565 -117.195526 317 26ft 0kts
14-Jan-22 10:38 32.732565 -117.195526 317 26ft 0kts
14-Jan-22 10:39 32.732565 -117.195526 317 26ft 0kts
14-Jan-22 10:40 32.732565 -117.195526 317 26ft 0kts
14-Jan-22 10:41 32.732565 -117.195526 317 26ft 0kts
14-Jan-22 10:42 32.732565 -117.195526 317 26ft 0kts
14-Jan-22 10:43 32.732567 -117.195529 317 26ft 0kts
14-Jan-22 10:44 32.732239 -117.195177 325 26ft 2kts
14-Jan-22 10:45 32.731756 -117.195076 13 26ft 0kts
14-Jan-22 10:46 32.731757 -117.195076 13 26ft 0kts
14-Jan-22 10:47 32.731757 -117.195076 13 26ft 0kts
14-Jan-22 10:48 32.732527 -117.194709 29 26ft 11kts
14-Jan-22 10:49 32.732711 -117.194588 29 26ft 0kts
14-Jan-22 10:50 32.732756 -117.190568 106 26ft 18kts
14-Jan-22 10:51 32.731298 -117.184570 106 26ft 19kts
14-Jan-22 10:52 32.729805 -117.178396 106 26ft 17kts
14-Jan-22 10:53 32.729621 -117.177309 76 26ft 0kts
14-Jan-22 10:54 32.729621 -117.177309 76 26ft 0kts
14-Jan-22 10:55 32.730634 -117.177533 285 26ft 3kts
14-Jan-22 10:56 32.740303 -117.215269 287 1288ft 179kts
14-Jan-22 10:57 32.757369 -117.273890 288 4106ft 204kts
14-Jan-22 10:58 32.772641 -117.347757 254 6253ft 261kts
14-Jan-22 10:59 32.709387 -117.366283 144 9061ft 291kts
14-Jan-22 11:00 32.647807 -117.297512 137 11139ft 330kts
14-Jan-22 11:01 32.619920 -117.193237 89 13087ft 361kts
14-Jan-22 11:02 32.618682 -117.072324 93 14940ft 372kts
14-Jan-22 11:03 32.610352 -116.945983 83 16553ft 393kts
14-Jan-22 11:04 32.631182 -116.816509 80 18334ft 409kts
14-Jan-22 11:05 32.645500 -116.680786 83 19954ft 422kts
14-Jan-22 11:06 32.659780 -116.540616 82 21473ft 431kts
14-Jan-22 11:07 32.674691 -116.397669 82 22803ft 441kts
14-Jan-22 11:08 32.690225 -116.251965 83 23977ft 448kts
14-Jan-22 11:09 32.706296 -116.104252 83 24912ft 455kts
14-Jan-22 11:10 32.720780 -115.954579 85 25849ft 459kts
14-Jan-22 11:11 32.726791 -115.802338 88 26695ft 464kts
14-Jan-22 11:12 32.732790 -115.647374 85 27194ft 478kts
14-Jan-22 11:13 32.754227 -115.488516 81 27187ft 495kts
14-Jan-22 11:15 32.771259 -115.327245 89 27179ft 479kts
14-Jan-22 11:16 32.767241 -115.172928 95 26671ft 463kts
14-Jan-22 11:17 32.762923 -115.019479 89 25326ft 471kts
14-Jan-22 11:18 32.765841 -114.864528 87 25182ft 472kts
14-Jan-22 11:19 32.768940 -114.706692 87 25187ft 483kts
14-Jan-22 11:20 32.772230 -114.545188 87 25152ft 493kts
14-Jan-22 11:21 32.772328 -114.380598 89 25159ft 500kts
14-Jan-22 11:22 32.773186 -114.216151 87 25156ft 495kts
14-Jan-22 11:23 32.776821 -114.054054 87 25157ft 488kts
14-Jan-22 11:24 32.780544 -113.893565 86 25157ft 483kts
14-Jan-22 11:25 32.796395 -113.739930 80 25134ft 445kts
14-Jan-22 11:26 32.836125 -113.613394 44 25068ft 391kts
14-Jan-22 11:27 32.909283 -113.520899 40 23999ft 383kts
14-Jan-22 11:28 32.983464 -113.431596 40 23102ft 374kts
14-Jan-22 11:29 33.055528 -113.344516 40 22267ft 364kts
14-Jan-22 11:30 33.125292 -113.260041 40 21040ft 349kts
14-Jan-22 11:31 33.192981 -113.178670 40 18794ft 337kts
14-Jan-22 11:32 33.257830 -113.101835 40 16600ft 323kts
14-Jan-22 11:33 33.292799 -113.008239 85 14415ft 324kts
14-Jan-22 11:34 33.295460 -112.902762 86 12316ft 313kts
14-Jan-22 11:35 33.303197 -112.801601 71 11982ft 298kts
14-Jan-22 11:36 33.324833 -112.714279 70 11682ft 256kts
14-Jan-22 11:36 33.342101 -112.647076 70 10638ft 254kts
14-Jan-22 11:38 33.367593 -112.554558 70 9259ft 248kts
14-Jan-22 11:38 33.386298 -112.489939 69 8315ft 244kts
14-Jan-22 11:40 33.410998 -112.404950 69 7234ft 218kts
14-Jan-22 11:41 33.429715 -112.339368 70 5994ft 197kts
14-Jan-22 11:42 33.439169 -112.276985 83 4581ft 184kts
14-Jan-22 11:42 33.441258 -112.233494 87 3885ft 139kts
14-Jan-22 11:43 33.440190 -112.187182 88 3147ft 142kts
14-Jan-22 11:45 33.440535 -112.132575 88 2878ft 139kts
14-Jan-22 11:46 33.440813 -112.089654 89 2170ft 134kts
14-Jan-22 11:46 33.440808 -112.053373 89 1596ft 136kts
14-Jan-22 11:47 33.440842 -112.009718 89 1130ft 96kts
14-Jan-22 11:48 33.440024 -112.000720 131 1133ft 0kts
14-Jan-22 11:50 33.440014 -112.000708 135 1133ft 0kts
14-Jan-22 11:50 33.439027 -111.999470 91 1133ft 12kts
14-Jan-22 11:51 33.437300 -111.998316 226 1131ft 4kts
14-Jan-22 11:52 33.437234 -111.998843 268 1131ft 0kts
14-Jan-22 11:53 33.437234 -111.998843 268 1131ft 0kts
14-Jan-22 11:54 33.437234 -111.998843 268 1131ft 0kts
14-Jan-22 11:55 33.437234 -111.998843 268 1131ft 0kts

Navigation Log

Ident Type
Flight plan parsing failed, navigation log unavailable